createdAt,value
2019-02-05T00:01:44.582Z,3.95
2019-02-05T00:04:54.667Z,3.37
2019-02-05T00:08:01.903Z,4.17
2019-02-05T00:11:09.013Z,3.58
2019-02-05T00:14:16.231Z,4.03
2019-02-05T00:17:23.599Z,3.33
2019-02-05T00:20:30.777Z,4.17
2019-02-05T00:23:41.106Z,3.42
2019-02-05T00:26:48.229Z,2.98
2019-02-05T00:29:55.754Z,3.65
2019-02-05T00:33:02.858Z,3.33
2019-02-05T00:36:11.358Z,4.42
2019-02-05T00:39:19.981Z,4.22
2019-02-05T00:42:29.401Z,3.55
2019-02-05T00:45:36.547Z,2.85
2019-02-05T00:48:43.636Z,3.20
2019-02-05T00:51:51.062Z,3.12
2019-02-05T00:54:58.099Z,3.58
2019-02-05T00:58:05.332Z,3.27
2019-02-05T01:01:15.325Z,3.27
2019-02-05T01:04:21.133Z,3.60
2019-02-05T01:07:28.287Z,4.05
2019-02-05T01:10:35.302Z,3.60
2019-02-05T01:13:42.262Z,3.60
2019-02-05T01:16:49.699Z,3.40
2019-02-05T01:19:57.015Z,4.05
2019-02-05T01:23:04.197Z,3.60
2019-02-05T01:26:11.649Z,4.55
2019-02-05T01:29:18.740Z,3.95
2019-02-05T01:32:25.792Z,3.65
2019-02-05T01:35:32.943Z,3.90
2019-02-05T01:38:40.114Z,3.80
2019-02-05T01:41:53.413Z,4.05
2019-02-05T01:45:00.451Z,3.90
2019-02-05T01:48:07.753Z,4.45
2019-02-05T01:51:14.741Z,4.70
2019-02-05T01:54:21.778Z,4.10
2019-02-05T01:57:29.225Z,4.42
2019-02-05T02:00:39.147Z,4.22
2019-02-05T02:03:46.362Z,4.80
2019-02-05T02:06:53.546Z,5.40
2019-02-05T02:10:00.617Z,5.60
2019-02-05T02:13:07.690Z,4.28
2019-02-05T02:16:15.233Z,4.87
2019-02-05T02:19:22.346Z,5.08
2019-02-05T02:22:29.773Z,5.00
2019-02-05T02:25:37.163Z,4.95
2019-02-05T02:28:44.355Z,4.87
2019-02-05T02:31:51.623Z,5.40
2019-02-05T02:34:58.784Z,4.37
2019-02-05T02:38:06.494Z,5.78
2019-02-05T02:41:13.590Z,4.47
2019-02-05T02:44:20.864Z,4.90
2019-02-05T02:47:28.012Z,4.80
2019-02-05T02:50:35.186Z,5.83
2019-02-05T02:53:44.190Z,5.97
2019-02-05T02:57:04.319Z,5.62
2019-02-05T03:00:09.674Z,4.67
2019-02-05T03:03:17.092Z,4.70
2019-02-05T03:06:24.168Z,4.55
2019-02-05T03:09:33.925Z,5.35
2019-02-05T03:12:41.245Z,5.90
2019-02-05T03:15:48.928Z,5.33
2019-02-05T03:18:56.143Z,4.67
2019-02-05T03:22:03.391Z,5.87
2019-02-05T03:25:11.757Z,4.75
2019-02-05T03:28:18.897Z,5.92
2019-02-05T03:31:26.132Z,5.15
2019-02-05T03:34:33.379Z,5.42
2019-02-05T03:37:40.528Z,5.90
2019-02-05T03:41:10.114Z,6.20
2019-02-05T03:44:17.441Z,6.67
2019-02-05T03:47:24.944Z,6.62
2019-02-05T03:50:34.976Z,5.72
2019-02-05T03:53:46.727Z,6.67
2019-02-05T03:57:35.118Z,6.15
2019-02-05T04:01:14.738Z,5.60
2019-02-05T04:05:24.151Z,5.67
2019-02-05T04:09:00.737Z,6.05
2019-02-05T04:12:27.376Z,7.08
2019-02-05T04:16:05.513Z,6.17
2019-02-05T04:19:48.334Z,5.70
2019-02-05T04:23:38.312Z,5.87
2019-02-05T04:27:19.571Z,6.65
2019-02-05T04:31:03.704Z,5.35
2019-02-05T04:34:47.235Z,5.53
2019-02-05T04:38:38.529Z,6.80
2019-02-05T04:42:26.578Z,6.50
2019-02-05T04:46:04.290Z,6.10
2019-02-05T04:49:55.393Z,7.28
2019-02-05T04:53:32.398Z,6.53
2019-02-05T04:57:26.617Z,6.90
2019-02-05T05:01:11.284Z,6.62
2019-02-05T05:04:58.314Z,7.60
2019-02-05T05:08:58.809Z,9.13
2019-02-05T05:12:06.216Z,8.13
2019-02-05T05:15:14.155Z,7.25
2019-02-05T05:18:21.650Z,7.87
2019-02-05T05:21:29.148Z,6.37
2019-02-05T05:24:36.870Z,8.28
2019-02-05T05:27:44.824Z,8.28
2019-02-05T05:30:52.530Z,7.87
2019-02-05T05:33:59.607Z,8.73
2019-02-05T05:37:25.820Z,7.72
2019-02-05T05:40:33.064Z,7.45
2019-02-05T05:43:40.407Z,8.45
2019-02-05T05:46:47.870Z,6.95
2019-02-05T05:49:55.063Z,9.33
2019-02-05T05:53:02.215Z,7.05
2019-02-05T05:56:09.466Z,8.05
2019-02-05T05:59:18.176Z,8.35
2019-02-05T06:02:25.509Z,7.92
2019-02-05T06:05:32.737Z,8.05
2019-02-05T06:08:40.121Z,7.53
2019-02-05T06:11:47.530Z,8.93
2019-02-05T06:14:57.890Z,9.70
2019-02-05T06:18:05.294Z,9.08
2019-02-05T06:21:13.706Z,7.33
2019-02-05T06:24:21.110Z,9.00
2019-02-05T06:27:28.702Z,9.00
2019-02-05T06:30:35.805Z,8.45
2019-02-05T06:33:43.064Z,8.25
2019-02-05T06:36:50.247Z,9.10
2019-02-05T06:39:57.717Z,9.30
2019-02-05T06:43:05.318Z,8.45
2019-02-05T06:46:12.567Z,9.35
2019-02-05T06:49:19.899Z,8.68
2019-02-05T06:52:27.073Z,8.73
2019-02-05T06:55:34.487Z,8.55
2019-02-05T06:58:46.505Z,9.88
2019-02-05T07:01:51.207Z,9.48
2019-02-05T07:04:58.475Z,8.73
2019-02-05T07:08:08.964Z,8.73
2019-02-05T07:11:16.374Z,8.95
2019-02-05T07:14:23.723Z,8.15
2019-02-05T07:17:30.941Z,8.08
2019-02-05T07:20:38.139Z,9.23
2019-02-05T07:23:45.525Z,9.35
2019-02-05T07:26:52.615Z,9.73
2019-02-05T07:29:59.709Z,8.55
2019-02-05T07:33:06.976Z,9.43
2019-02-05T07:36:17.451Z,10.05
2019-02-05T07:39:27.469Z,11.43
2019-02-05T07:42:33.574Z,11.22
2019-02-05T07:45:41.143Z,10.30
2019-02-05T07:48:48.644Z,10.00
2019-02-05T07:51:56.206Z,11.03
2019-02-05T07:55:03.536Z,9.73
2019-02-05T07:58:11.047Z,10.65
2019-02-05T08:01:18.424Z,10.10
2019-02-05T08:04:25.640Z,10.63
2019-02-05T08:07:32.888Z,10.80
2019-02-05T08:10:40.094Z,10.45
2019-02-05T08:13:47.573Z,10.88
2019-02-05T08:16:55.169Z,10.70
2019-02-05T08:20:02.255Z,12.43
2019-02-05T08:23:09.341Z,10.65
2019-02-05T08:26:16.634Z,10.25
2019-02-05T08:29:23.776Z,11.95
2019-02-05T08:32:30.963Z,11.33
2019-02-05T08:35:42.725Z,9.95
2019-02-05T08:38:51.638Z,11.25
2019-02-05T08:41:58.750Z,11.55
2019-02-05T08:45:07.786Z,10.58
2019-02-05T08:48:15.184Z,11.30
2019-02-05T08:51:22.632Z,11.75
2019-02-05T08:54:30.169Z,11.30
2019-02-05T08:57:37.847Z,12.07
2019-02-05T09:00:45.219Z,12.07
2019-02-05T09:03:52.425Z,10.73
2019-02-05T09:06:59.507Z,10.23
2019-02-05T09:10:07.832Z,11.80
2019-02-05T09:13:16.421Z,11.70
2019-02-05T09:16:23.580Z,12.60
2019-02-05T09:19:30.784Z,11.13
2019-02-05T09:22:37.987Z,11.87
2019-02-05T09:25:45.570Z,11.93
2019-02-05T09:28:53.163Z,10.37
2019-02-05T09:32:00.585Z,11.20
2019-02-05T09:35:09.060Z,11.63
2019-02-05T09:38:16.195Z,10.77
2019-02-05T09:41:23.711Z,10.40
2019-02-05T09:44:31.533Z,10.40
2019-02-05T09:47:39.144Z,11.57
2019-02-05T09:50:46.640Z,10.23
2019-02-05T09:53:54.253Z,11.10
2019-02-05T09:57:04.615Z,12.13
2019-02-05T10:00:23.785Z,11.80
2019-02-05T10:03:31.196Z,11.93
2019-02-05T10:06:38.609Z,11.73
2019-02-05T10:09:46.015Z,10.90
2019-02-05T10:12:53.579Z,10.47
2019-02-05T10:16:00.747Z,11.70
2019-02-05T10:19:07.999Z,12.57
2019-02-05T10:22:15.215Z,12.97
2019-02-05T10:25:22.419Z,11.80
2019-02-05T10:28:29.567Z,12.13
2019-02-05T10:31:36.858Z,12.50
2019-02-05T10:34:43.984Z,12.03
2019-02-05T10:37:54.458Z,12.40
2019-02-05T10:41:02.031Z,11.70
2019-02-05T10:44:09.414Z,12.13
2019-02-05T10:47:16.644Z,12.80
2019-02-05T10:50:27.420Z,13.63
2019-02-05T10:53:34.673Z,13.33
2019-02-05T10:56:42.409Z,12.73
2019-02-05T10:59:49.955Z,12.60
2019-02-05T11:02:58.899Z,11.93
2019-02-05T11:06:06.893Z,11.90
2019-02-05T11:09:14.016Z,12.07
2019-02-05T11:12:21.212Z,12.03
2019-02-05T11:15:30.685Z,12.93
2019-02-05T11:18:37.881Z,12.00
2019-02-05T11:21:45.169Z,11.53
2019-02-05T11:24:52.585Z,13.03
2019-02-05T11:27:59.751Z,11.87
2019-02-05T11:31:07.115Z,11.80
2019-02-05T11:34:20.392Z,12.17
2019-02-05T11:37:27.538Z,11.30
2019-02-05T11:40:41.986Z,11.43
2019-02-05T11:43:49.131Z,13.23
2019-02-05T11:47:03.972Z,10.87
2019-02-05T11:50:12.690Z,11.97
2019-02-05T11:53:19.873Z,11.80
2019-02-05T11:56:26.899Z,13.07
2019-02-05T11:59:34.093Z,12.43
2019-02-05T12:02:41.060Z,13.13
2019-02-05T12:05:48.329Z,13.10
2019-02-05T12:08:55.462Z,11.90
2019-02-05T12:12:05.769Z,11.20
2019-02-05T12:15:13.988Z,11.93
2019-02-05T12:18:21.119Z,12.37
2019-02-05T12:21:28.391Z,12.30
2019-02-05T12:24:35.558Z,11.57
2019-02-05T12:27:42.832Z,11.47
2019-02-05T12:30:50.427Z,11.37
2019-02-05T12:33:57.701Z,11.77
2019-02-05T12:37:04.993Z,10.90
2019-02-05T12:40:13.820Z,10.97
2019-02-05T12:43:21.362Z,11.57
2019-02-05T12:46:29.118Z,11.80
2019-02-05T12:49:36.300Z,11.53
2019-02-05T12:52:43.520Z,11.83
2019-02-05T12:55:50.883Z,10.83
2019-02-05T12:58:58.013Z,11.70
2019-02-05T13:02:05.089Z,11.07
2019-02-05T13:05:12.587Z,12.70
2019-02-05T13:08:19.775Z,11.90
2019-02-05T13:11:26.898Z,12.53
2019-02-05T13:14:36.661Z,11.67
2019-02-05T13:17:46.521Z,11.97
2019-02-05T13:20:53.617Z,12.27
2019-02-05T13:24:00.913Z,12.50
2019-02-05T13:27:08.019Z,12.27
2019-02-05T13:30:17.789Z,11.70
2019-02-05T13:33:25.250Z,12.87
2019-02-05T13:36:32.486Z,13.40
2019-02-05T13:39:43.067Z,12.60
2019-02-05T13:43:09.226Z,13.27
2019-02-05T13:46:16.534Z,13.20
2019-02-05T13:49:23.681Z,13.07
2019-02-05T13:52:30.791Z,14.07
2019-02-05T13:55:44.266Z,13.87
2019-02-05T13:58:51.565Z,13.27
2019-02-05T14:01:58.781Z,12.43
2019-02-05T14:05:06.927Z,12.20
2019-02-05T14:08:14.502Z,13.90
2019-02-05T14:11:21.918Z,13.50
2019-02-05T14:14:29.103Z,13.07
2019-02-05T14:17:36.362Z,13.27
2019-02-05T14:20:43.436Z,12.77
2019-02-05T14:23:50.846Z,13.33
2019-02-05T14:26:58.140Z,12.97
2019-02-05T14:30:07.602Z,12.23
2019-02-05T14:33:14.664Z,12.70
2019-02-05T14:36:21.852Z,12.83
2019-02-05T14:39:29.444Z,12.23
2019-02-05T14:42:37.144Z,13.67
2019-02-05T14:45:46.647Z,12.83
2019-02-05T14:48:53.746Z,13.10
2019-02-05T14:52:04.242Z,13.83
2019-02-05T14:55:12.616Z,13.30
2019-02-05T14:58:22.498Z,13.83
2019-02-05T15:01:29.499Z,13.77
2019-02-05T15:04:40.004Z,13.27
2019-02-05T15:07:50.108Z,13.93
2019-02-05T15:11:16.233Z,13.93
2019-02-05T15:14:26.330Z,14.07
2019-02-05T15:17:39.508Z,13.70
2019-02-05T15:20:49.238Z,13.77
2019-02-05T15:23:58.186Z,13.07
2019-02-05T15:27:05.330Z,14.63
2019-02-05T15:30:24.317Z,13.93
2019-02-05T15:33:54.155Z,14.57
2019-02-05T15:37:01.262Z,13.33
2019-02-05T15:40:09.400Z,14.47
2019-02-05T15:43:16.693Z,15.53
2019-02-05T15:46:23.818Z,15.63
2019-02-05T15:49:31.127Z,16.63
2019-02-05T15:52:38.385Z,14.50
2019-02-05T15:55:47.148Z,17.57
2019-02-05T15:58:54.353Z,14.40
2019-02-05T16:02:06.522Z,14.30
2019-02-05T16:05:11.009Z,15.50
2019-02-05T16:08:18.267Z,15.60
2019-02-05T16:11:25.500Z,15.30
2019-02-05T16:14:32.810Z,14.03
2019-02-05T16:17:40.393Z,14.33
2019-02-05T16:20:47.886Z,16.20
2019-02-05T16:24:01.774Z,14.10
2019-02-05T16:27:08.807Z,15.63
2019-02-05T16:30:20.023Z,14.83
2019-02-05T16:33:27.252Z,15.40
2019-02-05T16:36:34.359Z,16.30
2019-02-05T16:39:41.615Z,14.83
2019-02-05T16:42:48.952Z,14.63
2019-02-05T16:45:56.295Z,14.30
2019-02-05T16:49:06.558Z,16.48
2019-02-05T16:52:13.926Z,14.68
2019-02-05T16:55:21.299Z,15.28
2019-02-05T16:58:28.962Z,13.90
2019-02-05T17:01:35.961Z,15.35
2019-02-05T17:04:43.100Z,14.20
2019-02-05T17:07:53.413Z,15.32
2019-02-05T17:11:00.731Z,15.18
2019-02-05T17:14:15.201Z,15.68
2019-02-05T17:17:22.210Z,14.00
2019-02-05T17:20:30.421Z,15.75
2019-02-05T17:23:37.653Z,16.32
2019-02-05T17:26:44.714Z,14.35
2019-02-05T17:29:51.848Z,14.80
2019-02-05T17:32:59.090Z,14.03
2019-02-05T17:36:06.490Z,14.40
2019-02-05T17:39:16.579Z,16.12
2019-02-05T17:42:23.693Z,13.95
2019-02-05T17:45:33.244Z,13.43
2019-02-05T17:48:40.421Z,15.65
2019-02-05T17:51:47.782Z,14.93
2019-02-05T17:54:54.807Z,14.13
2019-02-05T17:58:01.970Z,15.30
2019-02-05T18:01:13.498Z,15.25
2019-02-05T18:04:20.761Z,14.83
2019-02-05T18:07:28.301Z,14.40
2019-02-05T18:10:35.385Z,14.38
2019-02-05T18:13:42.839Z,15.80
2019-02-05T18:16:50.008Z,14.20
2019-02-05T18:19:57.215Z,15.20
2019-02-05T18:23:04.677Z,15.38
2019-02-05T18:26:12.169Z,14.65
2019-02-05T18:29:19.499Z,14.58
2019-02-05T18:32:26.594Z,15.20
2019-02-05T18:35:38.880Z,15.58
2019-02-05T18:38:46.401Z,15.68
2019-02-05T18:41:54.033Z,15.85
2019-02-05T18:45:01.145Z,15.88
2019-02-05T18:48:08.429Z,15.30
2019-02-05T18:51:15.904Z,14.45
2019-02-05T18:54:23.009Z,15.43
2019-02-05T18:57:30.371Z,16.27
2019-02-05T19:00:40.304Z,16.85
2019-02-05T19:03:47.986Z,16.82
2019-02-05T19:06:55.358Z,15.25
2019-02-05T19:10:02.446Z,15.40
2019-02-05T19:13:13.158Z,16.27
2019-02-05T19:16:20.282Z,14.55
2019-02-05T19:19:27.312Z,15.43
2019-02-05T19:22:34.516Z,15.43
2019-02-05T19:26:09.917Z,16.23
2019-02-05T19:29:18.901Z,13.32
2019-02-05T19:32:28.358Z,14.38
2019-02-05T19:35:35.449Z,15.20
2019-02-05T19:38:42.583Z,15.20
2019-02-05T19:41:49.615Z,14.13
2019-02-05T19:45:15.826Z,15.38
2019-02-05T19:48:43.733Z,15.08
2019-02-05T19:51:50.906Z,15.65
2019-02-05T19:54:59.034Z,13.68
2019-02-05T19:58:06.983Z,15.32
2019-02-05T20:01:14.997Z,15.43
2019-02-05T20:04:22.151Z,13.00
2019-02-05T20:07:30.315Z,15.10
2019-02-05T20:10:37.626Z,14.40
2019-02-05T20:13:46.320Z,14.30
2019-02-05T20:16:53.264Z,14.75
2019-02-05T20:20:01.873Z,13.13
2019-02-05T20:23:09.239Z,14.23
2019-02-05T20:26:16.506Z,13.62
2019-02-05T20:29:23.586Z,15.72
2019-02-05T20:32:30.680Z,14.78
2019-02-05T20:35:39.099Z,16.07
2019-02-05T20:38:46.126Z,14.87
2019-02-05T20:41:53.126Z,13.55
2019-02-05T20:45:00.331Z,14.98
2019-02-05T20:48:07.962Z,15.85
2019-02-05T20:51:15.583Z,12.98
2019-02-05T20:54:22.940Z,15.13
2019-02-05T20:57:30.039Z,14.00
2019-02-05T21:00:37.726Z,13.75
2019-02-05T21:03:45.434Z,14.53
2019-02-05T21:06:54.656Z,15.03
2019-02-05T21:10:01.661Z,13.38
2019-02-05T21:13:09.779Z,12.73
2019-02-05T21:16:16.979Z,12.88
2019-02-05T21:19:24.319Z,13.10
2019-02-05T21:22:33.273Z,13.78
2019-02-05T21:25:40.380Z,14.05
2019-02-05T21:28:50.214Z,14.30
2019-02-05T21:31:56.694Z,15.00
2019-02-05T21:35:04.782Z,14.10
2019-02-05T21:38:12.023Z,14.13
2019-02-05T21:41:19.109Z,16.67
2019-02-05T21:44:26.392Z,14.20
2019-02-05T21:47:33.380Z,15.60
2019-02-05T21:50:59.386Z,13.85
2019-02-05T21:54:06.879Z,13.38
2019-02-05T21:57:16.907Z,13.48
2019-02-05T22:00:29.041Z,14.90
2019-02-05T22:03:36.035Z,14.23
2019-02-05T22:06:43.847Z,14.15
2019-02-05T22:09:51.932Z,15.53
2019-02-05T22:12:59.391Z,14.80
2019-02-05T22:16:07.422Z,12.78
2019-02-05T22:19:15.907Z,14.38
2019-02-05T22:22:23.310Z,14.85
2019-02-05T22:25:30.491Z,16.87
2019-02-05T22:28:37.543Z,17.35
2019-02-05T22:31:45.180Z,13.78
2019-02-05T22:34:54.293Z,13.68
2019-02-05T22:38:02.081Z,13.58
2019-02-05T22:41:09.169Z,14.23
2019-02-05T22:44:16.279Z,15.23
2019-02-05T22:47:23.824Z,13.98
2019-02-05T22:50:32.515Z,14.10
2019-02-05T22:53:39.799Z,14.30
2019-02-05T22:56:46.965Z,14.90
2019-02-05T22:59:54.725Z,16.45
2019-02-05T23:03:02.330Z,13.35
2019-02-05T23:06:43.812Z,14.13
2019-02-05T23:10:02.956Z,17.20
2019-02-05T23:13:16.060Z,16.17
2019-02-05T23:16:23.377Z,15.58
2019-02-05T23:19:30.966Z,12.93
2019-02-05T23:22:38.423Z,14.00
2019-02-05T23:25:45.938Z,16.30
2019-02-05T23:28:53.209Z,13.20
2019-02-05T23:32:00.651Z,15.48
2019-02-05T23:35:09.056Z,14.70
2019-02-05T23:38:16.755Z,12.88
2019-02-05T23:41:23.827Z,14.53
2019-02-05T23:44:31.049Z,12.93
2019-02-05T23:47:38.830Z,14.45
2019-02-05T23:50:46.421Z,13.20
2019-02-05T23:53:53.885Z,16.97
2019-02-05T23:57:01.278Z,14.83
